Pagina principale
METAR-TAF:

METAR-TAF

Aeroporti :

Passo di Resia, Italia

latitudine: 46-50N, longitudine: 010-30E, altezza: 1800 m

Osservazione

Il bollettino è stato emesso 47 minuti fa, alle 14:55 UTC
Vento 5 kt da nord con raffiche fino a 15 kt
Temperature 11°C
Umidità 35%
Pressione 1002 hPa
Visibilità 10 km o più
Nuvoloso ad un'altezza di 2000 ft

METAR: LIVE 271455Z 01005G15KT 9999 BKN020 11/M04 Q1002 RMK BKN VIS MIN 9999

Ora: 17:42 (15:42 UTC)


TAF: mancante

Osservazioni e previsioni meteorologiche di più di 4000 aeroporti (messaggi METAR e TAF).

Le stazioni disponibili sono rappresentate dai dischi gialli e rossi sulla carta.

Puntare il mouse per vedere il nome della stazione.

Clicca sopra per visualizzare le osservazioni e previsioni meteorologiche.

Per cambiare la mappa : fare clic sui pulsanti verdi con una croce nera per ingrandire, il pulsante verde con un trattino per diminuire, o sulla freccia verde per le mappe adiacenti.


METAR-TAF: